Sorlandet — LDTY — position and weather

sailwx.info

Track history (hours):
 
Tides and Currents Weather Stations Pressure Air Temp Water Temp Dewpoint Dewpoint Depression Visibility Wind Speed Wind Dir Waves Ship Positions

Sorlandet (Norway)

Last reported at 2017-Sep-22 02:00 UTC. Time now 2017-Sep-22 17:04 UTC.
Position N 39°30' W 009°40'.

Length 65 m; draft 4.5 m.

Type: Sailing vessel. MMSI: 257165000.

Date/timePositionNaut miles runAvg speedWind from/ knotsBaromVisibWave heightAir tempDewpointWater temp
2017-Sep-22 02:00N 39°30' W 009°40'3 6.7
2017-Sep-22 01:30N 39°33' W 009°40'5 7.6
2017-Sep-22 00:51N 39°38' W 009°38'  
2017-Sep-14 07:15N 49°46' W 003°59'1 2.7
2017-Sep-14 06:56N 49°47' W 003°59'1 2.5
2017-Sep-14 06:30N 49°47' W 003°57'1 2.2
2017-Sep-14 05:57N 49°48' W 003°56'1 2.5
2017-Sep-14 05:27N 49°49' W 003°54'1 2.8
2017-Sep-14 05:00N 49°49' W 003°52'1 2.6
2017-Sep-14 04:30N 49°50' W 003°51'1 2.9
2017-Sep-14 04:00N 49°51' W 003°49'1 2.5
2017-Sep-14 03:30N 49°52' W 003°47'1 2.5
2017-Sep-14 03:00N 49°52' W 003°46'1 2.6
2017-Sep-14 02:30N 49°53' W 003°44'1 2.0
2017-Sep-14 02:00N 49°54' W 003°43'1 1.5
2017-Sep-14 01:30N 49°54' W 003°42'0 0.8
2017-Sep-14 01:00N 49°55' W 003°42'1 1.0
2017-Sep-14 00:31N 49°55' W 003°42'1 1.3
2017-Sep-14 00:00N 49°56' W 003°43'1 1.3
2017-Sep-13 23:30N 49°56' W 003°43'1 1.0
2017-Sep-13 23:00N 49°57' W 003°43'1 1.2
2017-Sep-13 22:30N 49°57' W 003°44'1 1.3
2017-Sep-13 22:00N 49°58' W 003°45'1 1.3
2017-Sep-13 21:30N 49°58' W 003°45'1 1.2
2017-Sep-13 21:00N 49°59' W 003°45'1 1.3
2017-Sep-13 20:30N 49°60' W 003°45'1 1.8
2017-Sep-13 20:00N 50°00' W 003°45'1 1.8
2017-Sep-13 19:30N 50°01' W 003°44'1 1.7
2017-Sep-13 19:00N 50°02' W 003°44'1 2.3
2017-Sep-13 18:30N 50°03' W 003°43'1 2.3
2017-Sep-13 18:00N 50°04' W 003°42'1 2.0
2017-Sep-13 17:30N 50°05' W 003°42'1 2.5
2017-Sep-13 17:00N 50°06' W 003°41'2 3.7
2017-Sep-13 16:30N 50°08' W 003°40'2 3.3
2017-Sep-13 16:00N 50°09' W 003°39'2 3.7
2017-Sep-13 15:30N 50°11' W 003°37'2 3.9
2017-Sep-13 15:00N 50°13' W 003°36'2 4.3
2017-Sep-13 14:30N 50°15' W 003°34'2 3.9
2017-Sep-13 14:00N 50°16' W 003°32'2 3.9
2017-Sep-13 13:30N 50°18' W 003°30'2 3.7
2017-Sep-13 13:00N 50°19' W 003°29'2 3.7
2017-Sep-13 12:31N 50°21' W 003°28'2 4.4
2017-Sep-13 12:00N 50°23' W 003°28'1 2.4
2017-Sep-13 11:31N 50°25' W 003°28'2 3.7
2017-Sep-13 11:00N 50°25' W 003°31'0 0.3
2017-Sep-13 10:28N 50°25' W 003°31'0 0.1
2017-Sep-13 09:58N 50°25' W 003°31'0 0.0
2017-Sep-13 09:28N 50°25' W 003°31'0 0.0
2017-Sep-13 08:58N 50°25' W 003°31'0 0.0
2017-Sep-13 08:28N 50°25' W 003°31'0 0.0
2017-Sep-13 07:58N 50°25' W 003°31'0 0.0
2017-Sep-13 07:28N 50°25' W 003°31'0 0.0
2017-Sep-13 06:58N 50°25' W 003°31'0 0.0
2017-Sep-13 06:28N 50°25' W 003°31'0 0.0
2017-Sep-13 05:58N 50°25' W 003°31'0 0.0
2017-Sep-13 05:28N 50°25' W 003°31'0 0.0
2017-Sep-13 04:58N 50°25' W 003°31'0 0.0
2017-Sep-13 04:28N 50°25' W 003°31'0 0.0
2017-Sep-13 03:58N 50°25' W 003°31'0 0.0
2017-Sep-13 03:28N 50°25' W 003°31'0 0.0
2017-Sep-13 02:58N 50°25' W 003°31'0 0.0
2017-Sep-13 02:28N 50°25' W 003°31'0 0.0
2017-Sep-13 01:58N 50°25' W 003°31'0 0.0
2017-Sep-13 01:28N 50°25' W 003°31'0 0.0
2017-Sep-13 00:58N 50°25' W 003°31'0 0.0
2017-Sep-13 00:28N 50°25' W 003°31'0 0.0
2017-Sep-12 23:58N 50°25' W 003°31'0 0.0
2017-Sep-12 23:28N 50°25' W 003°31'0 0.0
2017-Sep-12 22:58N 50°25' W 003°31'0 0.0
2017-Sep-12 22:28N 50°25' W 003°31'0 0.0
2017-Sep-12 21:58N 50°25' W 003°31'0 0.0
2017-Sep-12 21:28N 50°25' W 003°31'0 0.0
2017-Sep-12 20:58N 50°25' W 003°31'0 0.0
2017-Sep-12 20:28N 50°25' W 003°31'0 0.0
2017-Sep-12 19:58N 50°25' W 003°31'0 0.0
2017-Sep-12 19:28N 50°25' W 003°31'0 0.0
2017-Sep-12 18:58N 50°25' W 003°31'0 0.0
2017-Sep-12 18:28N 50°25' W 003°31'0 0.0
2017-Sep-12 17:58N 50°25' W 003°31'0 0.0
2017-Sep-12 17:28N 50°25' W 003°31'0 0.0
2017-Sep-12 16:58N 50°25' W 003°31'0 0.0
2017-Sep-12 16:28N 50°25' W 003°31'0 0.0
2017-Sep-12 15:58N 50°25' W 003°31'0 0.0
2017-Sep-12 15:28N 50°25' W 003°31'0 0.0
2017-Sep-12 14:58N 50°25' W 003°31'0 0.0
2017-Sep-12 14:28N 50°25' W 003°31'0 0.0
2017-Sep-12 13:58N 50°25' W 003°31'0 0.0
2017-Sep-12 13:28N 50°25' W 003°31'0 0.0
2017-Sep-12 12:58N 50°25' W 003°31'0 0.0
2017-Sep-12 12:28N 50°25' W 003°31'0 0.0
2017-Sep-12 11:58N 50°25' W 003°31'0 0.1
2017-Sep-12 11:28N 50°25' W 003°31'0 0.1
2017-Sep-12 10:58N 50°25' W 003°31'0 0.0
2017-Sep-12 10:28N 50°25' W 003°31'0 0.0
2017-Sep-12 09:58N 50°25' W 003°31'0 0.1
2017-Sep-12 09:28N 50°25' W 003°31'0 0.0
2017-Sep-12 08:58N 50°25' W 003°31'0 0.0
2017-Sep-12 08:28N 50°25' W 003°31'0 0.0
2017-Sep-12 07:58N 50°25' W 003°31'0 0.0
2017-Sep-12 07:28N 50°25' W 003°31'0 0.0
2017-Sep-12 06:58N 50°25' W 003°31'0 0.0
2017-Sep-12 06:28N 50°25' W 003°31'0 0.0
2017-Sep-12 05:58N 50°25' W 003°31'0 0.0
2017-Sep-12 05:28N 50°25' W 003°31'0 0.0
2017-Sep-12 04:58N 50°25' W 003°31'0 0.0
2017-Sep-12 04:28N 50°25' W 003°31'0 0.0
2017-Sep-12 03:58N 50°25' W 003°31'0 0.0
2017-Sep-12 03:28N 50°25' W 003°31'0 0.0
2017-Sep-12 02:58N 50°25' W 003°31'0 0.0
2017-Sep-12 02:28N 50°25' W 003°31'  
Track history (hours):
 
Tides and Currents Weather Stations Pressure Air Temp Water Temp Dewpoint Dewpoint Depression Visibility Wind Speed Wind Dir Waves Ship Positions

Sorlandet (Norway)

Last reported at 2017-Sep-22 02:00 UTC. Time now 2017-Sep-22 17:04 UTC.
Position N 39°30' W 009°40'.

Length 65 m; draft 4.5 m.

Type: Sailing vessel. MMSI: 257165000.

Date/timePositionNaut miles runAvg speedWind from/ knotsBaromVisibWave heightAir tempDewpointWater temp
2017-Sep-22 02:00N 39°30' W 009°40'3 6.7
2017-Sep-22 01:30N 39°33' W 009°40'5 7.6
2017-Sep-22 00:51N 39°38' W 009°38'  
2017-Sep-14 07:15N 49°46' W 003°59'1 2.7
2017-Sep-14 06:56N 49°47' W 003°59'1 2.5
2017-Sep-14 06:30N 49°47' W 003°57'1 2.2
2017-Sep-14 05:57N 49°48' W 003°56'1 2.5
2017-Sep-14 05:27N 49°49' W 003°54'1 2.8
2017-Sep-14 05:00N 49°49' W 003°52'1 2.6
2017-Sep-14 04:30N 49°50' W 003°51'1 2.9
2017-Sep-14 04:00N 49°51' W 003°49'1 2.5
2017-Sep-14 03:30N 49°52' W 003°47'1 2.5
2017-Sep-14 03:00N 49°52' W 003°46'1 2.6
2017-Sep-14 02:30N 49°53' W 003°44'1 2.0
2017-Sep-14 02:00N 49°54' W 003°43'1 1.5
2017-Sep-14 01:30N 49°54' W 003°42'0 0.8
2017-Sep-14 01:00N 49°55' W 003°42'1 1.0
2017-Sep-14 00:31N 49°55' W 003°42'1 1.3
2017-Sep-14 00:00N 49°56' W 003°43'1 1.3
2017-Sep-13 23:30N 49°56' W 003°43'1 1.0
2017-Sep-13 23:00N 49°57' W 003°43'1 1.2
2017-Sep-13 22:30N 49°57' W 003°44'1 1.3
2017-Sep-13 22:00N 49°58' W 003°45'1 1.3
2017-Sep-13 21:30N 49°58' W 003°45'1 1.2
2017-Sep-13 21:00N 49°59' W 003°45'1 1.3
2017-Sep-13 20:30N 49°60' W 003°45'1 1.8
2017-Sep-13 20:00N 50°00' W 003°45'1 1.8
2017-Sep-13 19:30N 50°01' W 003°44'1 1.7
2017-Sep-13 19:00N 50°02' W 003°44'1 2.3
2017-Sep-13 18:30N 50°03' W 003°43'1 2.3
2017-Sep-13 18:00N 50°04' W 003°42'1 2.0
2017-Sep-13 17:30N 50°05' W 003°42'1 2.5
2017-Sep-13 17:00N 50°06' W 003°41'2 3.7
2017-Sep-13 16:30N 50°08' W 003°40'2 3.3
2017-Sep-13 16:00N 50°09' W 003°39'2 3.7
2017-Sep-13 15:30N 50°11' W 003°37'2 3.9
2017-Sep-13 15:00N 50°13' W 003°36'2 4.3
2017-Sep-13 14:30N 50°15' W 003°34'2 3.9
2017-Sep-13 14:00N 50°16' W 003°32'2 3.9
2017-Sep-13 13:30N 50°18' W 003°30'2 3.7
2017-Sep-13 13:00N 50°19' W 003°29'2 3.7
2017-Sep-13 12:31N 50°21' W 003°28'2 4.4
2017-Sep-13 12:00N 50°23' W 003°28'1 2.4
2017-Sep-13 11:31N 50°25' W 003°28'2 3.7
2017-Sep-13 11:00N 50°25' W 003°31'0 0.3
2017-Sep-13 10:28N 50°25' W 003°31'0 0.1
2017-Sep-13 09:58N 50°25' W 003°31'0 0.0
2017-Sep-13 09:28N 50°25' W 003°31'0 0.0
2017-Sep-13 08:58N 50°25' W 003°31'0 0.0
2017-Sep-13 08:28N 50°25' W 003°31'0 0.0
2017-Sep-13 07:58N 50°25' W 003°31'0 0.0
2017-Sep-13 07:28N 50°25' W 003°31'0 0.0
2017-Sep-13 06:58N 50°25' W 003°31'0 0.0
2017-Sep-13 06:28N 50°25' W 003°31'0 0.0
2017-Sep-13 05:58N 50°25' W 003°31'0 0.0
2017-Sep-13 05:28N 50°25' W 003°31'0 0.0
2017-Sep-13 04:58N 50°25' W 003°31'0 0.0
2017-Sep-13 04:28N 50°25' W 003°31'0 0.0
2017-Sep-13 03:58N 50°25' W 003°31'0 0.0
2017-Sep-13 03:28N 50°25' W 003°31'0 0.0
2017-Sep-13 02:58N 50°25' W 003°31'0 0.0
2017-Sep-13 02:28N 50°25' W 003°31'0 0.0
2017-Sep-13 01:58N 50°25' W 003°31'0 0.0
2017-Sep-13 01:28N 50°25' W 003°31'0 0.0
2017-Sep-13 00:58N 50°25' W 003°31'0 0.0
2017-Sep-13 00:28N 50°25' W 003°31'0 0.0
2017-Sep-12 23:58N 50°25' W 003°31'0 0.0
2017-Sep-12 23:28N 50°25' W 003°31'0 0.0
2017-Sep-12 22:58N 50°25' W 003°31'0 0.0
2017-Sep-12 22:28N 50°25' W 003°31'0 0.0
2017-Sep-12 21:58N 50°25' W 003°31'0 0.0
2017-Sep-12 21:28N 50°25' W 003°31'0 0.0
2017-Sep-12 20:58N 50°25' W 003°31'0 0.0
2017-Sep-12 20:28N 50°25' W 003°31'0 0.0
2017-Sep-12 19:58N 50°25' W 003°31'0 0.0
2017-Sep-12 19:28N 50°25' W 003°31'0 0.0
2017-Sep-12 18:58N 50°25' W 003°31'0 0.0
2017-Sep-12 18:28N 50°25' W 003°31'0 0.0
2017-Sep-12 17:58N 50°25' W 003°31'0 0.0
2017-Sep-12 17:28N 50°25' W 003°31'0 0.0
2017-Sep-12 16:58N 50°25' W 003°31'0 0.0
2017-Sep-12 16:28N 50°25' W 003°31'0 0.0
2017-Sep-12 15:58N 50°25' W 003°31'0 0.0
2017-Sep-12 15:28N 50°25' W 003°31'0 0.0
2017-Sep-12 14:58N 50°25' W 003°31'0 0.0
2017-Sep-12 14:28N 50°25' W 003°31'0 0.0
2017-Sep-12 13:58N 50°25' W 003°31'0 0.0
2017-Sep-12 13:28N 50°25' W 003°31'0 0.0
2017-Sep-12 12:58N 50°25' W 003°31'0 0.0
2017-Sep-12 12:28N 50°25' W 003°31'0 0.0
2017-Sep-12 11:58N 50°25' W 003°31'0 0.1
2017-Sep-12 11:28N 50°25' W 003°31'0 0.1
2017-Sep-12 10:58N 50°25' W 003°31'0 0.0
2017-Sep-12 10:28N 50°25' W 003°31'0 0.0
2017-Sep-12 09:58N 50°25' W 003°31'0 0.1
2017-Sep-12 09:28N 50°25' W 003°31'0 0.0
2017-Sep-12 08:58N 50°25' W 003°31'0 0.0
2017-Sep-12 08:28N 50°25' W 003°31'0 0.0
2017-Sep-12 07:58N 50°25' W 003°31'0 0.0
2017-Sep-12 07:28N 50°25' W 003°31'0 0.0
2017-Sep-12 06:58N 50°25' W 003°31'0 0.0
2017-Sep-12 06:28N 50°25' W 003°31'0 0.0
2017-Sep-12 05:58N 50°25' W 003°31'0 0.0
2017-Sep-12 05:28N 50°25' W 003°31'0 0.0
2017-Sep-12 04:58N 50°25' W 003°31'0 0.0
2017-Sep-12 04:28N 50°25' W 003°31'0 0.0
2017-Sep-12 03:58N 50°25' W 003°31'0 0.0
2017-Sep-12 03:28N 50°25' W 003°31'0 0.0
2017-Sep-12 02:58N 50°25' W 003°31'0 0.0
2017-Sep-12 02:28N 50°25' W 003°31'  

Dump ship's entire track history